Аэропорт: Уфа. Уфа

ICAO: UWUU

METAR:
2021-04-21 20:00:00
UWUU 212000Z 19004MPS 9999 BKN040 09/M06 Q1028 R14R/0///60 NOSIG
METAR:
2021-04-21 16:44:00
TAF UWUU 211644Z 2118/2218 18006G12MPS 9999 BKN040 TX10/2215Z TN03/2202Z TEMPO 2118/2121 16005G10MPS BKN020 TEMPO 2121/2218 18009G16MPS 6000 -RA OVC016